createdAt,value
2022-11-12T00:01:01.676Z,3.03
2022-11-12T00:03:28.488Z,6.43
2022-11-12T00:05:55.331Z,3.75
2022-11-12T00:08:22.827Z,5.78
2022-11-12T00:10:49.742Z,6.32
2022-11-12T00:13:16.617Z,6.30
2022-11-12T00:15:43.391Z,4.40
2022-11-12T00:18:10.280Z,5.35
2022-11-12T00:20:37.135Z,5.13
2022-11-12T00:23:04.015Z,6.32
2022-11-12T00:25:31.110Z,8.50
2022-11-12T00:28:03.282Z,6.15
2022-11-12T00:30:30.110Z,6.28
2022-11-12T00:32:56.980Z,6.40
2022-11-12T00:35:23.761Z,4.95
2022-11-12T00:37:57.729Z,5.18
2022-11-12T00:40:25.335Z,3.03
2022-11-12T00:42:52.966Z,4.25
2022-11-12T00:45:20.795Z,3.60
2022-11-12T00:47:47.625Z,3.53
2022-11-12T00:50:15.944Z,4.90
2022-11-12T00:52:42.994Z,3.42
2022-11-12T00:55:09.958Z,3.38
2022-11-12T00:57:36.765Z,4.07
2022-11-12T01:00:06.558Z,7.13
2022-11-12T01:02:40.684Z,5.72
2022-11-12T01:05:10.429Z,5.97
2022-11-12T01:07:37.288Z,6.03
2022-11-12T01:10:04.949Z,4.53
2022-11-12T01:12:32.563Z,3.35
2022-11-12T01:14:59.829Z,2.70
2022-11-12T01:17:26.665Z,3.83
2022-11-12T01:19:53.546Z,4.10
2022-11-12T01:22:20.313Z,2.67
2022-11-12T01:24:47.115Z,4.03
2022-11-12T01:27:14.089Z,3.88
2022-11-12T01:29:41.120Z,5.90
2022-11-12T01:32:08.036Z,6.72
2022-11-12T01:34:34.994Z,3.55
2022-11-12T01:37:01.753Z,5.05
2022-11-12T01:39:28.512Z,6.68
2022-11-12T01:41:55.313Z,4.03
2022-11-12T01:44:26.731Z,6.03
2022-11-12T01:47:29.494Z,3.60
2022-11-12T01:50:26.061Z,4.32
2022-11-12T01:53:01.151Z,4.88
2022-11-12T01:55:32.853Z,3.28
2022-11-12T01:58:10.902Z,7.40
2022-11-12T02:00:37.742Z,6.95
2022-11-12T02:03:13.068Z,4.57
2022-11-12T02:05:41.816Z,6.32
2022-11-12T02:08:11.054Z,3.45
2022-11-12T02:10:40.277Z,4.47
2022-11-12T02:13:26.891Z,6.82
2022-11-12T02:15:53.759Z,3.90
2022-11-12T02:18:20.531Z,4.70
2022-11-12T02:20:59.540Z,4.68
2022-11-12T02:23:26.340Z,6.28
2022-11-12T02:25:53.109Z,5.65
2022-11-12T02:28:19.978Z,6.53
2022-11-12T02:30:49.667Z,5.95
2022-11-12T02:33:16.732Z,3.75
2022-11-12T02:35:43.552Z,4.05
2022-11-12T02:38:10.557Z,4.65
2022-11-12T02:40:37.445Z,5.28
2022-11-12T02:43:04.416Z,4.47
2022-11-12T02:45:32.066Z,4.50
2022-11-12T02:47:59.537Z,4.63
2022-11-12T02:50:26.319Z,3.85
2022-11-12T02:52:53.083Z,4.85
2022-11-12T02:55:19.909Z,5.97
2022-11-12T02:57:46.671Z,4.75
2022-11-12T03:00:14.037Z,7.40
2022-11-12T03:02:42.698Z,5.57
2022-11-12T03:05:11.524Z,5.43
2022-11-12T03:07:39.082Z,9.25
2022-11-12T03:10:06.659Z,7.05
2022-11-12T03:12:33.454Z,4.00
2022-11-12T03:15:00.241Z,5.22
2022-11-12T03:17:27.019Z,5.07
2022-11-12T03:19:53.796Z,5.53
2022-11-12T03:22:20.552Z,6.63
2022-11-12T03:24:47.299Z,4.68
2022-11-12T03:27:14.077Z,5.53
2022-11-12T03:29:40.829Z,6.28
2022-11-12T03:32:07.592Z,5.93
2022-11-12T03:34:34.407Z,4.80
2022-11-12T03:37:01.193Z,7.35
2022-11-12T03:39:27.975Z,6.50
2022-11-12T03:41:54.726Z,8.55
2022-11-12T03:44:21.823Z,8.68
2022-11-12T03:46:48.667Z,4.75
2022-11-12T03:49:15.439Z,4.63
2022-11-12T03:51:42.467Z,5.95
2022-11-12T03:54:09.330Z,6.85
2022-11-12T03:56:36.100Z,4.78
2022-11-12T03:59:02.960Z,4.85
2022-11-12T04:01:29.774Z,4.55
2022-11-12T04:03:56.565Z,4.35
2022-11-12T04:06:42.176Z,5.32
2022-11-12T04:09:09.048Z,4.97
2022-11-12T04:11:35.822Z,4.70
2022-11-12T04:14:02.680Z,6.05
2022-11-12T04:16:47.976Z,8.73
2022-11-12T04:19:33.075Z,6.18
2022-11-12T04:22:10.317Z,7.53
2022-11-12T04:24:59.163Z,4.63
2022-11-12T04:27:29.797Z,7.97
2022-11-12T04:30:16.010Z,7.68
2022-11-12T04:32:50.403Z,5.97
2022-11-12T04:35:19.040Z,5.78
2022-11-12T04:37:46.480Z,5.10
2022-11-12T04:40:37.137Z,5.88
2022-11-12T04:43:24.724Z,5.55
2022-11-12T04:45:53.838Z,11.55
2022-11-12T04:48:22.294Z,6.60
2022-11-12T04:50:54.753Z,4.97
2022-11-12T04:53:21.863Z,5.15
2022-11-12T04:55:54.055Z,6.35
2022-11-12T04:58:21.743Z,5.78
2022-11-12T05:00:50.243Z,5.30
2022-11-12T05:03:17.893Z,7.57
2022-11-12T05:05:44.656Z,5.45
2022-11-12T05:08:11.438Z,6.18
2022-11-12T05:10:38.247Z,6.22
2022-11-12T05:13:05.018Z,7.40
2022-11-12T05:15:31.793Z,7.75
2022-11-12T05:17:58.603Z,5.68
2022-11-12T05:20:25.366Z,5.70
2022-11-12T05:23:05.784Z,6.13
2022-11-12T05:25:35.738Z,6.38
2022-11-12T05:28:02.561Z,5.32
2022-11-12T05:30:29.350Z,4.60
2022-11-12T05:32:56.090Z,6.05
2022-11-12T05:35:22.846Z,9.25
2022-11-12T05:37:49.688Z,9.70
2022-11-12T05:40:16.513Z,6.65
2022-11-12T05:42:44.741Z,5.22
2022-11-12T05:45:11.535Z,7.43
2022-11-12T05:47:38.305Z,5.53
2022-11-12T05:50:05.609Z,5.10
2022-11-12T05:52:32.392Z,5.20
2022-11-12T05:54:59.201Z,5.18
2022-11-12T05:57:27.728Z,6.18
2022-11-12T05:59:54.494Z,8.25
2022-11-12T06:02:21.407Z,6.03
2022-11-12T06:04:48.275Z,6.88
2022-11-12T06:07:15.123Z,5.60
2022-11-12T06:09:41.949Z,5.70
2022-11-12T06:12:08.717Z,5.97
2022-11-12T06:14:35.481Z,5.95
2022-11-12T06:17:02.244Z,5.25
2022-11-12T06:19:29.005Z,6.32
2022-11-12T06:21:55.788Z,6.03
2022-11-12T06:24:22.664Z,5.47
2022-11-12T06:26:49.618Z,4.82
2022-11-12T06:29:16.403Z,6.93
2022-11-12T06:31:43.153Z,4.28
2022-11-12T06:34:09.939Z,5.25
2022-11-12T06:36:36.717Z,5.80
2022-11-12T06:39:03.792Z,6.13
2022-11-12T06:41:30.567Z,6.78
2022-11-12T06:43:57.315Z,6.30
2022-11-12T06:46:24.087Z,5.97
2022-11-12T06:48:50.858Z,6.90
2022-11-12T06:51:20.397Z,6.28
2022-11-12T06:53:47.888Z,9.52
2022-11-12T06:56:15.493Z,8.18
2022-11-12T06:58:42.629Z,7.50
2022-11-12T07:01:14.389Z,8.10
2022-11-12T07:03:42.267Z,6.95
2022-11-12T07:06:13.119Z,7.13
2022-11-12T07:08:40.673Z,8.65
2022-11-12T07:11:07.981Z,8.20
2022-11-12T07:13:35.980Z,11.45
2022-11-12T07:16:04.681Z,8.85
2022-11-12T07:18:32.448Z,8.50
2022-11-12T07:21:01.304Z,8.68
2022-11-12T07:23:30.317Z,6.45
2022-11-12T07:26:03.962Z,6.88
2022-11-12T07:28:31.400Z,6.88
2022-11-12T07:30:59.892Z,10.90
2022-11-12T07:33:28.076Z,7.00
2022-11-12T07:35:59.624Z,7.97
2022-11-12T07:38:27.847Z,11.00
2022-11-12T07:41:21.339Z,7.88
2022-11-12T07:43:50.593Z,9.10
2022-11-12T07:46:23.900Z,5.65
2022-11-12T07:48:51.680Z,10.37
2022-11-12T07:51:25.671Z,7.93
2022-11-12T07:53:58.905Z,8.20
2022-11-12T07:56:27.846Z,5.47
2022-11-12T07:58:54.612Z,5.70
2022-11-12T08:01:33.159Z,7.60
2022-11-12T08:04:02.600Z,7.43
2022-11-12T08:06:30.769Z,5.25
2022-11-12T08:09:00.458Z,7.70
2022-11-12T08:11:27.473Z,6.80
2022-11-12T08:13:54.385Z,7.20
2022-11-12T08:16:21.326Z,7.78
2022-11-12T08:18:48.167Z,7.32
2022-11-12T08:21:17.675Z,7.68
2022-11-12T08:23:45.055Z,8.02
2022-11-12T08:26:15.137Z,10.05
2022-11-12T08:28:41.951Z,10.07
2022-11-12T08:31:22.786Z,8.32
2022-11-12T08:33:50.131Z,5.60
2022-11-12T08:36:18.056Z,5.90
2022-11-12T08:38:45.304Z,7.75
2022-11-12T08:41:14.446Z,7.20
2022-11-12T08:43:42.621Z,5.40
2022-11-12T08:46:09.901Z,7.20
2022-11-12T08:48:37.153Z,6.82
2022-11-12T08:51:20.413Z,5.80
2022-11-12T08:53:47.411Z,6.40
2022-11-12T08:56:14.369Z,5.78
2022-11-12T08:58:41.185Z,9.45
2022-11-12T09:01:08.881Z,6.45
2022-11-12T09:03:35.764Z,4.45
2022-11-12T09:06:05.283Z,4.20
2022-11-12T09:08:34.701Z,4.20
2022-11-12T09:11:01.708Z,4.88
2022-11-12T09:13:28.967Z,7.50
2022-11-12T09:16:01.586Z,5.28
2022-11-12T09:18:29.136Z,4.38
2022-11-12T09:21:01.336Z,4.82
2022-11-12T09:23:28.203Z,5.50
2022-11-12T09:25:56.845Z,4.78
2022-11-12T09:28:24.564Z,10.30
2022-11-12T09:30:53.588Z,4.45
2022-11-12T09:33:31.243Z,5.07
2022-11-12T09:36:01.859Z,7.13
2022-11-12T09:38:28.974Z,8.95
2022-11-12T09:41:10.905Z,9.85
2022-11-12T09:43:45.244Z,9.27
2022-11-12T09:49:11.470Z,5.53
2022-11-12T09:51:48.385Z,5.25
2022-11-12T09:54:31.955Z,5.72
2022-11-12T09:56:58.883Z,8.85
2022-11-12T09:59:44.289Z,3.72
2022-11-12T10:02:55.497Z,4.30
2022-11-12T10:05:42.254Z,3.85
2022-11-12T10:08:34.317Z,2.78
2022-11-12T10:12:04.599Z,6.80
2022-11-12T10:15:39.501Z,6.20
2022-11-12T10:18:37.955Z,7.30
2022-11-12T10:21:34.894Z,7.03
2022-11-12T10:24:03.539Z,5.80
2022-11-12T10:26:32.378Z,3.85
2022-11-12T10:29:19.966Z,6.18
2022-11-12T10:31:46.747Z,6.88
2022-11-12T10:34:13.398Z,4.68
2022-11-12T10:37:01.854Z,6.25
2022-11-12T10:39:34.319Z,7.70
2022-11-12T10:42:11.783Z,4.28
2022-11-12T10:44:40.050Z,7.38
2022-11-12T10:47:27.949Z,7.22
2022-11-12T10:50:20.926Z,4.10
2022-11-12T10:53:06.643Z,3.50
2022-11-12T10:55:37.652Z,4.70
2022-11-12T10:58:10.185Z,5.47
2022-11-12T11:01:03.286Z,5.40
2022-11-12T11:03:35.057Z,6.75
2022-11-12T11:06:22.887Z,6.28
2022-11-12T11:08:52.730Z,3.72
2022-11-12T11:11:31.659Z,4.18
2022-11-12T11:14:34.807Z,5.93
2022-11-12T11:17:08.355Z,7.95
2022-11-12T11:19:41.735Z,5.30
2022-11-12T11:22:37.053Z,6.25
2022-11-12T11:25:27.978Z,6.53
2022-11-12T11:28:18.628Z,11.40
2022-11-12T11:31:06.721Z,6.65
2022-11-12T11:34:02.453Z,4.75
2022-11-12T11:36:59.491Z,5.05
2022-11-12T11:39:53.893Z,6.95
2022-11-12T11:42:41.866Z,9.63
2022-11-12T11:45:17.570Z,6.15
2022-11-12T11:48:01.508Z,5.03
2022-11-12T11:50:37.199Z,5.57
2022-11-12T11:53:16.222Z,6.07
2022-11-12T11:56:02.648Z,7.47
2022-11-12T11:58:59.755Z,5.68
2022-11-12T12:02:15.749Z,5.25
2022-11-12T12:04:50.479Z,6.95
2022-11-12T12:07:48.102Z,6.55
2022-11-12T12:11:07.019Z,6.30
2022-11-12T12:14:04.631Z,5.90
2022-11-12T12:16:37.695Z,5.80
2022-11-12T12:19:38.423Z,6.32
2022-11-12T12:22:16.073Z,4.07
2022-11-12T12:24:51.424Z,3.83
2022-11-12T12:27:24.769Z,3.15
2022-11-12T12:29:58.587Z,5.68
2022-11-12T12:32:50.842Z,5.18
2022-11-12T12:35:31.408Z,4.00
2022-11-12T12:38:25.485Z,3.13
2022-11-12T12:41:07.001Z,7.25
2022-11-12T12:43:55.144Z,5.95
2022-11-12T12:46:27.209Z,2.90
2022-11-12T12:48:56.291Z,4.18
2022-11-12T12:51:23.632Z,2.85
2022-11-12T12:53:50.424Z,3.03
2022-11-12T12:56:42.344Z,2.10
2022-11-12T12:59:24.807Z,5.07
2022-11-12T13:02:21.123Z,6.65
2022-11-12T13:04:52.926Z,5.05
2022-11-12T13:07:43.506Z,9.05
2022-11-12T13:10:41.405Z,4.97
2022-11-12T13:13:17.405Z,3.80
2022-11-12T13:15:47.554Z,3.17
2022-11-12T13:18:39.621Z,3.17
2022-11-12T13:21:22.212Z,3.00
2022-11-12T13:24:09.998Z,8.45
2022-11-12T13:26:39.665Z,9.18
2022-11-12T13:29:41.309Z,8.98
2022-11-12T13:32:33.967Z,5.72
2022-11-12T13:35:21.642Z,10.18
2022-11-12T13:38:15.754Z,7.22
2022-11-12T13:41:16.668Z,6.37
2022-11-12T13:43:47.321Z,6.78
2022-11-12T13:46:23.744Z,7.13
2022-11-12T13:49:06.857Z,8.02
2022-11-12T13:51:44.341Z,6.30
2022-11-12T13:54:43.677Z,5.82
2022-11-12T13:57:37.007Z,7.30
2022-11-12T14:00:20.795Z,9.23
2022-11-12T14:03:08.155Z,13.63
2022-11-12T14:05:37.918Z,6.70
2022-11-12T14:08:55.788Z,5.15
2022-11-12T14:11:42.049Z,3.70
2022-11-12T14:14:46.161Z,5.47
2022-11-12T14:17:35.831Z,5.38
2022-11-12T14:20:30.405Z,5.50
2022-11-12T14:23:04.579Z,4.80
2022-11-12T14:25:31.868Z,5.03
2022-11-12T14:27:58.640Z,6.88
2022-11-12T14:30:32.342Z,11.43
2022-11-12T14:33:10.871Z,12.10
2022-11-12T14:35:39.665Z,13.27
2022-11-12T14:38:09.300Z,13.95
2022-11-12T14:40:42.328Z,11.68
2022-11-12T14:43:27.274Z,14.15
2022-11-12T14:45:56.980Z,6.43
2022-11-12T14:48:24.125Z,9.98
2022-11-12T14:50:59.830Z,9.73
2022-11-12T14:53:33.618Z,7.00
2022-11-12T14:56:03.971Z,7.97
2022-11-12T14:58:32.192Z,9.00
2022-11-12T15:00:59.071Z,8.02
2022-11-12T15:03:32.317Z,9.93
2022-11-12T15:06:11.390Z,9.70
2022-11-12T15:08:43.410Z,7.32
2022-11-12T15:11:32.073Z,7.07
2022-11-12T15:14:03.857Z,6.60
2022-11-12T15:16:36.111Z,13.90
2022-11-12T15:19:25.889Z,11.45
2022-11-12T15:22:01.055Z,10.32
2022-11-12T15:24:33.868Z,14.50
2022-11-12T15:27:27.646Z,7.90
2022-11-12T15:30:16.058Z,5.00
2022-11-12T15:32:43.251Z,6.72
2022-11-12T15:35:25.348Z,7.15
2022-11-12T15:37:52.702Z,5.05
2022-11-12T15:40:21.861Z,6.10
2022-11-12T15:42:48.963Z,7.35
2022-11-12T15:45:18.190Z,8.38
2022-11-12T15:47:45.356Z,6.80
2022-11-12T15:50:23.895Z,10.23
2022-11-12T15:52:51.255Z,6.88
2022-11-12T15:55:18.892Z,7.85
2022-11-12T15:57:52.412Z,5.28
2022-11-12T16:00:22.150Z,10.80
2022-11-12T16:02:59.381Z,8.52
2022-11-12T16:05:26.625Z,6.55
2022-11-12T16:07:53.400Z,7.13
2022-11-12T16:10:20.227Z,8.88
2022-11-12T16:12:48.007Z,8.13
2022-11-12T16:15:18.399Z,11.10
2022-11-12T16:17:46.754Z,9.13
2022-11-12T16:20:21.207Z,13.75
2022-11-12T16:25:16.442Z,12.43
2022-11-12T16:27:43.386Z,11.02
2022-11-12T16:30:20.499Z,14.88
2022-11-12T16:32:50.421Z,13.07
2022-11-12T16:35:17.866Z,11.32
2022-11-12T16:37:46.462Z,13.23
2022-11-12T16:40:20.292Z,14.57
2022-11-12T16:42:47.084Z,26.30
2022-11-12T16:45:20.359Z,26.33
2022-11-12T16:47:53.880Z,26.58
2022-11-12T16:50:26.114Z,25.77
2022-11-12T16:52:53.693Z,22.55
2022-11-12T16:55:21.368Z,29.35
2022-11-12T16:57:48.153Z,24.98
2022-11-12T17:00:18.112Z,25.40
2022-11-12T17:02:48.311Z,28.13
2022-11-12T17:05:24.452Z,19.40
2022-11-12T17:07:57.069Z,25.90
2022-11-12T17:10:25.382Z,26.25
2022-11-12T17:12:52.867Z,25.17
2022-11-12T17:15:20.156Z,21.15
2022-11-12T17:17:47.012Z,20.63
2022-11-12T17:20:14.075Z,21.80
2022-11-12T17:22:40.856Z,24.85
2022-11-12T17:25:08.584Z,30.08
2022-11-12T17:27:35.373Z,21.90
2022-11-12T17:30:03.640Z,20.63
2022-11-12T17:32:30.435Z,22.00
2022-11-12T17:34:57.202Z,27.20
2022-11-12T17:37:23.979Z,24.48
2022-11-12T17:39:50.888Z,25.20
2022-11-12T17:42:17.743Z,22.02
2022-11-12T17:44:46.145Z,23.92
2022-11-12T17:47:13.146Z,25.25
2022-11-12T17:49:40.018Z,23.92
2022-11-12T17:52:06.845Z,21.55
2022-11-12T17:54:34.418Z,20.83
2022-11-12T17:57:01.303Z,22.63
2022-11-12T17:59:28.106Z,21.67
2022-11-12T18:01:54.869Z,21.65
2022-11-12T18:04:23.742Z,23.02
2022-11-12T18:06:50.914Z,22.05
2022-11-12T18:09:17.883Z,21.95
2022-11-12T18:11:53.988Z,17.55
2022-11-12T18:14:22.596Z,21.90
2022-11-12T18:16:49.823Z,18.27
2022-11-12T18:19:16.708Z,19.40
2022-11-12T18:21:43.493Z,20.52
2022-11-12T18:24:15.560Z,23.40
2022-11-12T18:26:44.040Z,27.00
2022-11-12T18:29:12.421Z,19.27
2022-11-12T18:31:40.414Z,18.00
2022-11-12T18:34:08.963Z,18.55
2022-11-12T18:36:35.873Z,19.35
2022-11-12T18:39:04.710Z,19.10
2022-11-12T18:41:33.218Z,19.80
2022-11-12T18:44:02.018Z,19.73
2022-11-12T18:46:28.838Z,19.98
2022-11-12T18:48:55.646Z,24.33
2022-11-12T18:51:22.473Z,22.38
2022-11-12T18:53:49.245Z,20.40
2022-11-12T18:56:21.902Z,21.13
2022-11-12T18:58:48.789Z,21.38
2022-11-12T19:01:22.242Z,21.35
2022-11-12T19:03:53.780Z,17.70
2022-11-12T19:06:21.126Z,23.38
2022-11-12T19:08:48.052Z,19.88
2022-11-12T19:11:18.584Z,17.70
2022-11-12T19:13:45.409Z,21.38
2022-11-12T19:16:17.042Z,15.98
2022-11-12T19:18:44.854Z,18.63
2022-11-12T19:21:23.892Z,21.77
2022-11-12T19:23:54.551Z,23.50
2022-11-12T19:26:23.779Z,17.48
2022-11-12T19:28:50.568Z,18.38
2022-11-12T19:31:24.313Z,17.98
2022-11-12T19:33:51.465Z,20.05
2022-11-12T19:36:22.133Z,20.73
2022-11-12T19:38:57.635Z,20.25
2022-11-12T19:41:25.414Z,21.17
2022-11-12T19:43:52.853Z,19.67
2022-11-12T19:46:20.502Z,19.10
2022-11-12T19:48:47.450Z,20.27
2022-11-12T19:51:14.451Z,23.15
2022-11-12T19:53:46.444Z,21.42
2022-11-12T19:56:17.042Z,22.00
2022-11-12T19:58:48.728Z,19.42
2022-11-12T20:01:18.532Z,22.90
2022-11-12T20:03:45.801Z,20.95
2022-11-12T20:06:18.086Z,21.45
2022-11-12T20:08:45.608Z,23.90
2022-11-12T20:11:13.423Z,21.15
2022-11-12T20:13:40.510Z,21.27
2022-11-12T20:16:11.170Z,22.55
2022-11-12T20:18:37.973Z,21.88
2022-11-12T20:21:05.838Z,22.15
2022-11-12T20:23:36.212Z,19.13
2022-11-12T20:26:14.249Z,21.65
2022-11-12T20:28:43.021Z,18.02
2022-11-12T20:31:16.884Z,18.92
2022-11-12T20:33:43.696Z,21.15
2022-11-12T20:36:13.954Z,17.35
2022-11-12T20:38:43.216Z,18.70
2022-11-12T20:41:36.472Z,18.80
2022-11-12T20:44:03.317Z,19.60
2022-11-12T20:46:30.134Z,18.48
2022-11-12T20:48:56.970Z,18.80
2022-11-12T20:51:28.504Z,19.35
2022-11-12T20:53:59.910Z,19.25
2022-11-12T20:56:29.881Z,19.48
2022-11-12T20:58:58.201Z,18.45
2022-11-12T21:01:27.281Z,14.73
2022-11-12T21:03:54.765Z,16.85
2022-11-12T21:06:25.965Z,16.75
2022-11-12T21:08:53.310Z,18.27
2022-11-12T21:11:23.476Z,16.15
2022-11-12T21:13:50.292Z,16.08
2022-11-12T21:16:17.291Z,19.85
2022-11-12T21:18:44.205Z,14.73
2022-11-12T21:21:14.940Z,15.65
2022-11-12T21:23:44.040Z,17.55
2022-11-12T21:26:19.320Z,15.23
2022-11-12T21:28:49.723Z,16.50
2022-11-12T21:31:22.559Z,14.77
2022-11-12T21:33:50.947Z,17.60
2022-11-12T21:36:18.379Z,16.13
2022-11-12T21:38:45.151Z,17.38
2022-11-12T21:41:22.039Z,15.27
2022-11-12T21:43:50.196Z,14.43
2022-11-12T21:46:23.656Z,15.38
2022-11-12T21:48:55.262Z,18.10
2022-11-12T21:51:25.841Z,16.52
2022-11-12T21:53:59.146Z,18.23
2022-11-12T21:56:27.458Z,13.87
2022-11-12T21:59:00.270Z,18.58
2022-11-12T22:01:30.068Z,21.45
2022-11-12T22:03:59.387Z,18.80
2022-11-12T22:06:29.492Z,17.67
2022-11-12T22:08:57.726Z,19.33
2022-11-12T22:11:25.468Z,18.88
2022-11-12T22:13:52.580Z,18.58
2022-11-12T22:16:22.584Z,20.10
2022-11-12T22:18:52.302Z,22.73
2022-11-12T22:21:35.579Z,20.95
2022-11-12T22:24:07.040Z,23.48
2022-11-12T22:26:33.891Z,23.98
2022-11-12T22:29:00.689Z,21.52
2022-11-12T22:31:32.436Z,22.83
2022-11-12T22:34:01.862Z,21.30
2022-11-12T22:36:31.390Z,20.48
2022-11-12T22:38:58.565Z,20.00
2022-11-12T22:41:28.626Z,21.38
2022-11-12T22:43:58.836Z,21.08
2022-11-12T22:46:33.533Z,20.40
2022-11-12T22:49:01.249Z,20.55
2022-11-12T22:51:31.283Z,25.42
2022-11-12T22:54:01.798Z,21.10
2022-11-12T22:56:29.557Z,18.30
2022-11-12T22:58:56.352Z,19.25
2022-11-12T23:01:27.146Z,21.10
2022-11-12T23:04:00.118Z,19.88
2022-11-12T23:06:29.091Z,13.30
2022-11-12T23:08:59.093Z,14.45
2022-11-12T23:11:26.226Z,16.48
2022-11-12T23:13:54.528Z,17.17
2022-11-12T23:16:32.037Z,19.88
2022-11-12T23:18:59.377Z,18.90
2022-11-12T23:21:29.039Z,16.40
2022-11-12T23:23:59.839Z,16.60
2022-11-12T23:26:31.031Z,16.60
2022-11-12T23:28:57.915Z,14.35
2022-11-12T23:31:29.507Z,20.38
2022-11-12T23:33:58.769Z,18.83
2022-11-12T23:36:26.680Z,15.80
2022-11-12T23:38:54.499Z,15.68
2022-11-12T23:41:25.623Z,14.23
2022-11-12T23:43:57.780Z,17.80
2022-11-12T23:46:25.156Z,12.98
2022-11-12T23:48:51.939Z,14.23
2022-11-12T23:51:21.211Z,13.25
2022-11-12T23:53:48.922Z,16.92
2022-11-12T23:56:19.626Z,14.70
2022-11-12T23:58:46.709Z,17.33
